sensor_id;sensor_type;location;lat;lon;timestamp;temperature;humidity
25346;DHT22;13300;51.032;3.710;2022-12-29T00:02:24;11.50;99.90
25346;DHT22;13300;51.032;3.710;2022-12-29T00:04:55;11.60;99.90
25346;DHT22;13300;51.032;3.710;2022-12-29T00:07:31;11.70;99.90
25346;DHT22;13300;51.032;3.710;2022-12-29T00:09:59;11.70;99.90
25346;DHT22;13300;51.032;3.710;2022-12-29T00:12:31;11.80;99.90
25346;DHT22;13300;51.032;3.710;2022-12-29T00:15:23;11.80;99.90
25346;DHT22;13300;51.032;3.710;2022-12-29T00:18:04;11.80;99.90
25346;DHT22;13300;51.032;3.710;2022-12-29T00:20:40;11.90;99.90
25346;DHT22;13300;51.032;3.710;2022-12-29T00:23:45;12.00;99.90
25346;DHT22;13300;51.032;3.710;2022-12-29T00:27:03;12.00;99.90
25346;DHT22;13300;51.032;3.710;2022-12-29T00:30:14;12.00;99.90
25346;DHT22;13300;51.032;3.710;2022-12-29T00:33:04;12.00;99.90
25346;DHT22;13300;51.032;3.710;2022-12-29T00:36:24;12.00;99.90
25346;DHT22;13300;51.032;3.710;2022-12-29T00:39:32;11.90;99.90
25346;DHT22;13300;51.032;3.710;2022-12-29T00:42:35;11.90;99.90
25346;DHT22;13300;51.032;3.710;2022-12-29T00:45:45;12.00;99.90
25346;DHT22;13300;51.032;3.710;2022-12-29T00:49:16;12.00;99.90
25346;DHT22;13300;51.032;3.710;2022-12-29T00:52:36;12.10;99.90
25346;DHT22;13300;51.032;3.710;2022-12-29T00:55:44;12.10;99.90
25346;DHT22;13300;51.032;3.710;2022-12-29T00:58:14;12.10;99.90
25346;DHT22;13300;51.032;3.710;2022-12-29T01:00:45;12.10;99.90
25346;DHT22;13300;51.032;3.710;2022-12-29T01:03:55;12.20;99.90
25346;DHT22;13300;51.032;3.710;2022-12-29T01:07:25;12.20;99.90
25346;DHT22;13300;51.032;3.710;2022-12-29T01:10:14;12.20;99.90
25346;DHT22;13300;51.032;3.710;2022-12-29T01:13:08;12.20;99.90
25346;DHT22;13300;51.032;3.710;2022-12-29T01:15:58;12.20;99.90
25346;DHT22;13300;51.032;3.710;2022-12-29T01:18:46;12.20;99.90
25346;DHT22;13300;51.032;3.710;2022-12-29T01:21:47;12.10;99.90
25346;DHT22;13300;51.032;3.710;2022-12-29T01:25:06;12.20;99.90
25346;DHT22;13300;51.032;3.710;2022-12-29T01:28:13;12.20;99.90
25346;DHT22;13300;51.032;3.710;2022-12-29T01:31:04;12.10;99.90
25346;DHT22;13300;51.032;3.710;2022-12-29T01:34:00;12.20;99.90
25346;DHT22;13300;51.032;3.710;2022-12-29T01:37:08;12.10;99.90
25346;DHT22;13300;51.032;3.710;2022-12-29T01:40:45;12.10;99.90
25346;DHT22;13300;51.032;3.710;2022-12-29T01:44:02;12.10;99.90
25346;DHT22;13300;51.032;3.710;2022-12-29T01:47:19;12.00;99.90
25346;DHT22;13300;51.032;3.710;2022-12-29T01:53:26;11.90;99.90
25346;DHT22;13300;51.032;3.710;2022-12-29T01:56:40;12.00;99.90
25346;DHT22;13300;51.032;3.710;2022-12-29T01:59:24;11.90;99.90
25346;DHT22;13300;51.032;3.710;2022-12-29T02:02:19;11.90;99.90
25346;DHT22;13300;51.032;3.710;2022-12-29T02:08:59;11.80;99.90
25346;DHT22;13300;51.032;3.710;2022-12-29T02:11:46;11.80;99.90
25346;DHT22;13300;51.032;3.710;2022-12-29T02:14:16;11.80;99.90
25346;DHT22;13300;51.032;3.710;2022-12-29T02:34:22;11.70;99.90
25346;DHT22;13300;51.032;3.710;2022-12-29T02:54:48;11.70;99.90
25346;DHT22;13300;51.032;3.710;2022-12-29T03:11:24;11.60;99.90
25346;DHT22;13300;51.032;3.710;2022-12-29T03:18:10;11.60;99.90
25346;DHT22;13300;51.032;3.710;2022-12-29T03:21:17;11.60;99.90
25346;DHT22;13300;51.032;3.710;2022-12-29T03:28:39;11.40;99.90
25346;DHT22;13300;51.032;3.710;2022-12-29T03:35:19;11.30;99.90
25346;DHT22;13300;51.032;3.710;2022-12-29T03:38:44;11.20;99.90
25346;DHT22;13300;51.032;3.710;2022-12-29T03:42:10;11.20;99.90
25346;DHT22;13300;51.032;3.710;2022-12-29T03:45:40;11.10;99.90
25346;DHT22;13300;51.032;3.710;2022-12-29T03:49:22;11.10;99.90
25346;DHT22;13300;51.032;3.710;2022-12-29T03:55:51;11.20;99.90
25346;DHT22;13300;51.032;3.710;2022-12-29T03:59:07;11.20;99.90
25346;DHT22;13300;51.032;3.710;2022-12-29T04:02:31;11.30;99.90
25346;DHT22;13300;51.032;3.710;2022-12-29T04:05:49;11.20;99.90
25346;DHT22;13300;51.032;3.710;2022-12-29T04:12:25;11.20;99.90
25346;DHT22;13300;51.032;3.710;2022-12-29T04:15:15;11.20;99.90
25346;DHT22;13300;51.032;3.710;2022-12-29T04:21:58;11.30;99.90
25346;DHT22;13300;51.032;3.710;2022-12-29T04:25:13;11.30;99.90
25346;DHT22;13300;51.032;3.710;2022-12-29T04:28:31;11.20;99.90
25346;DHT22;13300;51.032;3.710;2022-12-29T04:32:07;11.20;99.90
25346;DHT22;13300;51.032;3.710;2022-12-29T04:35:20;11.10;99.90
25346;DHT22;13300;51.032;3.710;2022-12-29T04:39:05;11.10;99.90
25346;DHT22;13300;51.032;3.710;2022-12-29T04:41:59;11.00;99.90
25346;DHT22;13300;51.032;3.710;2022-12-29T04:45:25;11.10;99.90
25346;DHT22;13300;51.032;3.710;2022-12-29T04:52:02;11.10;99.90
25346;DHT22;13300;51.032;3.710;2022-12-29T04:55:32;11.00;99.90
25346;DHT22;13300;51.032;3.710;2022-12-29T04:59:00;11.00;99.90
25346;DHT22;13300;51.032;3.710;2022-12-29T05:02:00;10.90;99.90
25346;DHT22;13300;51.032;3.710;2022-12-29T05:05:05;10.90;99.90
25346;DHT22;13300;51.032;3.710;2022-12-29T05:07:32;10.90;99.90
25346;DHT22;13300;51.032;3.710;2022-12-29T05:10:07;10.90;99.90
25346;DHT22;13300;51.032;3.710;2022-12-29T05:16:19;10.90;99.90
25346;DHT22;13300;51.032;3.710;2022-12-29T05:19:29;10.90;99.90
25346;DHT22;13300;51.032;3.710;2022-12-29T05:22:21;10.90;99.90
25346;DHT22;13300;51.032;3.710;2022-12-29T05:25:05;10.80;99.90
25346;DHT22;13300;51.032;3.710;2022-12-29T05:28:01;10.80;99.90
25346;DHT22;13300;51.032;3.710;2022-12-29T05:30:30;10.80;99.90
25346;DHT22;13300;51.032;3.710;2022-12-29T05:33:08;10.70;99.90
25346;DHT22;13300;51.032;3.710;2022-12-29T05:35:45;10.70;99.90
25346;DHT22;13300;51.032;3.710;2022-12-29T05:38:11;10.50;99.90
25346;DHT22;13300;51.032;3.710;2022-12-29T05:40:41;10.70;99.90
25346;DHT22;13300;51.032;3.710;2022-12-29T05:43:20;10.70;99.90
25346;DHT22;13300;51.032;3.710;2022-12-29T05:46:02;10.80;99.90
25346;DHT22;13300;51.032;3.710;2022-12-29T05:48:28;10.80;99.90
25346;DHT22;13300;51.032;3.710;2022-12-29T05:51:00;10.90;99.90
25346;DHT22;13300;51.032;3.710;2022-12-29T05:53:27;10.90;99.90
25346;DHT22;13300;51.032;3.710;2022-12-29T05:55:55;10.90;99.90
25346;DHT22;13300;51.032;3.710;2022-12-29T05:58:38;10.80;99.90
25346;DHT22;13300;51.032;3.710;2022-12-29T06:01:05;10.90;99.90
25346;DHT22;13300;51.032;3.710;2022-12-29T06:03:57;10.90;99.90
25346;DHT22;13300;51.032;3.710;2022-12-29T06:07:08;10.90;99.90
25346;DHT22;13300;51.032;3.710;2022-12-29T06:09:37;10.90;99.90
25346;DHT22;13300;51.032;3.710;2022-12-29T06:12:06;11.00;99.90
25346;DHT22;13300;51.032;3.710;2022-12-29T06:14:35;11.00;99.90
25346;DHT22;13300;51.032;3.710;2022-12-29T06:17:28;11.00;99.90
25346;DHT22;13300;51.032;3.710;2022-12-29T06:20:48;11.10;99.90
25346;DHT22;13300;51.032;3.710;2022-12-29T06:23:57;11.10;99.90
25346;DHT22;13300;51.032;3.710;2022-12-29T06:31:09;11.00;99.90
25346;DHT22;13300;51.032;3.710;2022-12-29T06:34:27;11.00;99.90
25346;DHT22;13300;51.032;3.710;2022-12-29T06:38:04;10.90;99.90
25346;DHT22;13300;51.032;3.710;2022-12-29T06:48:27;10.70;99.90
25346;DHT22;13300;51.032;3.710;2022-12-29T06:55:04;10.60;99.90
25346;DHT22;13300;51.032;3.710;2022-12-29T07:02:20;10.70;99.90
25346;DHT22;13300;51.032;3.710;2022-12-29T07:06:01;10.90;99.90
25346;DHT22;13300;51.032;3.710;2022-12-29T07:19:49;11.00;99.90
25346;DHT22;13300;51.032;3.710;2022-12-29T07:26:51;11.00;99.90
25346;DHT22;13300;51.032;3.710;2022-12-29T07:30:20;11.00;99.90
25346;DHT22;13300;51.032;3.710;2022-12-29T07:33:51;10.90;99.90
25346;DHT22;13300;51.032;3.710;2022-12-29T07:41:05;11.00;99.90
25346;DHT22;13300;51.032;3.710;2022-12-29T07:58:09;10.90;99.90
25346;DHT22;13300;51.032;3.710;2022-12-29T08:01:44;10.90;99.90
25346;DHT22;13300;51.032;3.710;2022-12-29T08:08:05;10.70;99.90
25346;DHT22;13300;51.032;3.710;2022-12-29T08:18:31;10.40;99.90
25346;DHT22;13300;51.032;3.710;2022-12-29T08:21:58;10.50;99.90
25346;DHT22;13300;51.032;3.710;2022-12-29T08:25:56;10.50;99.90
25346;DHT22;13300;51.032;3.710;2022-12-29T08:29:31;10.50;99.90
25346;DHT22;13300;51.032;3.710;2022-12-29T08:32:49;10.40;99.90
25346;DHT22;13300;51.032;3.710;2022-12-29T08:36:13;10.30;99.90
25346;DHT22;13300;51.032;3.710;2022-12-29T08:43:09;10.20;99.90
25346;DHT22;13300;51.032;3.710;2022-12-29T08:50:42;10.20;99.90
25346;DHT22;13300;51.032;3.710;2022-12-29T08:57:52;10.10;99.90
25346;DHT22;13300;51.032;3.710;2022-12-29T09:04:38;10.00;99.90
25346;DHT22;13300;51.032;3.710;2022-12-29T09:08:09;10.00;99.90
25346;DHT22;13300;51.032;3.710;2022-12-29T09:21:14;9.90;99.90
25346;DHT22;13300;51.032;3.710;2022-12-29T09:24:49;10.00;99.90
25346;DHT22;13300;51.032;3.710;2022-12-29T09:27:43;9.90;99.90
25346;DHT22;13300;51.032;3.710;2022-12-29T09:30:59;9.90;99.90
25346;DHT22;13300;51.032;3.710;2022-12-29T09:34:19;9.90;99.90
25346;DHT22;13300;51.032;3.710;2022-12-29T09:37:33;9.90;99.90
25346;DHT22;13300;51.032;3.710;2022-12-29T09:41:38;9.90;99.90
25346;DHT22;13300;51.032;3.710;2022-12-29T09:48:23;10.10;99.90
25346;DHT22;13300;51.032;3.710;2022-12-29T09:51:40;10.10;99.90
25346;DHT22;13300;51.032;3.710;2022-12-29T09:54:59;10.10;99.90
25346;DHT22;13300;51.032;3.710;2022-12-29T10:04:48;10.00;99.90
25346;DHT22;13300;51.032;3.710;2022-12-29T10:31:43;10.90;99.90
25346;DHT22;13300;51.032;3.710;2022-12-29T10:59:01;12.70;99.90
25346;DHT22;13300;51.032;3.710;2022-12-29T11:36:25;11.50;99.90
25346;DHT22;13300;51.032;3.710;2022-12-29T11:43:11;11.50;99.90
25346;DHT22;13300;51.032;3.710;2022-12-29T11:46:46;11.40;99.90
25346;DHT22;13300;51.032;3.710;2022-12-29T11:54:03;10.90;99.90
25346;DHT22;13300;51.032;3.710;2022-12-29T11:57:19;10.60;99.90
25346;DHT22;13300;51.032;3.710;2022-12-29T12:00:30;10.40;99.90
25346;DHT22;13300;51.032;3.710;2022-12-29T12:03:09;10.30;99.90
25346;DHT22;13300;51.032;3.710;2022-12-29T12:08:52;10.20;99.90
25346;DHT22;13300;51.032;3.710;2022-12-29T12:11:44;10.20;99.90
25346;DHT22;13300;51.032;3.710;2022-12-29T12:14:28;10.20;99.90
25346;DHT22;13300;51.032;3.710;2022-12-29T12:26:21;10.20;99.90
25346;DHT22;13300;51.032;3.710;2022-12-29T12:29:08;10.40;99.90
25346;DHT22;13300;51.032;3.710;2022-12-29T13:15:50;10.50;99.90
25346;DHT22;13300;51.032;3.710;2022-12-29T13:18:53;10.50;99.90
25346;DHT22;13300;51.032;3.710;2022-12-29T13:29:03;10.40;99.90
25346;DHT22;13300;51.032;3.710;2022-12-29T13:39:34;10.00;99.90
25346;DHT22;13300;51.032;3.710;2022-12-29T13:43:13;10.00;99.90
25346;DHT22;13300;51.032;3.710;2022-12-29T13:49:44;10.10;99.90
25346;DHT22;13300;51.032;3.710;2022-12-29T14:03:44;10.30;99.90
25346;DHT22;13300;51.032;3.710;2022-12-29T14:16:56;10.10;99.90
25346;DHT22;13300;51.032;3.710;2022-12-29T14:45:05;10.10;99.90
25346;DHT22;13300;51.032;3.710;2022-12-29T14:48:34;10.10;99.90
25346;DHT22;13300;51.032;3.710;2022-12-29T15:02:38;9.70;99.90
25346;DHT22;13300;51.032;3.710;2022-12-29T15:16:29;9.70;99.90
25346;DHT22;13300;51.032;3.710;2022-12-29T15:20:38;9.60;99.90
25346;DHT22;13300;51.032;3.710;2022-12-29T15:27:02;9.60;99.90
25346;DHT22;13300;51.032;3.710;2022-12-29T15:34:10;9.50;99.90
25346;DHT22;13300;51.032;3.710;2022-12-29T15:48:25;9.30;99.90
25346;DHT22;13300;51.032;3.710;2022-12-29T15:51:41;9.20;99.90
25346;DHT22;13300;51.032;3.710;2022-12-29T15:54:39;9.20;99.90
25346;DHT22;13300;51.032;3.710;2022-12-29T15:58:18;9.20;99.90
25346;DHT22;13300;51.032;3.710;2022-12-29T16:01:23;9.00;99.90
25346;DHT22;13300;51.032;3.710;2022-12-29T16:04:22;8.90;99.90
25346;DHT22;13300;51.032;3.710;2022-12-29T16:07:04;9.00;99.90
25346;DHT22;13300;51.032;3.710;2022-12-29T16:10:22;9.00;99.90
25346;DHT22;13300;51.032;3.710;2022-12-29T16:13:27;8.90;99.90
25346;DHT22;13300;51.032;3.710;2022-12-29T16:19:51;8.80;99.90
25346;DHT22;13300;51.032;3.710;2022-12-29T16:26:03;8.70;99.90
25346;DHT22;13300;51.032;3.710;2022-12-29T16:29:16;8.60;99.90
25346;DHT22;13300;51.032;3.710;2022-12-29T16:32:27;8.60;99.90
25346;DHT22;13300;51.032;3.710;2022-12-29T16:41:53;8.50;99.90
25346;DHT22;13300;51.032;3.710;2022-12-29T16:49:01;8.50;99.90
25346;DHT22;13300;51.032;3.710;2022-12-29T16:51:38;8.50;99.90
25346;DHT22;13300;51.032;3.710;2022-12-29T16:54:18;8.60;99.90
25346;DHT22;13300;51.032;3.710;2022-12-29T16:57:31;8.60;99.90
25346;DHT22;13300;51.032;3.710;2022-12-29T17:00:07;8.50;99.90
25346;DHT22;13300;51.032;3.710;2022-12-29T17:02:41;8.50;99.90
25346;DHT22;13300;51.032;3.710;2022-12-29T17:05:24;8.50;99.90
25346;DHT22;13300;51.032;3.710;2022-12-29T17:08:20;8.50;99.90
25346;DHT22;13300;51.032;3.710;2022-12-29T17:10:55;8.50;99.90
25346;DHT22;13300;51.032;3.710;2022-12-29T17:13:39;8.50;99.90
25346;DHT22;13300;51.032;3.710;2022-12-29T17:16:10;8.50;99.90
25346;DHT22;13300;51.032;3.710;2022-12-29T17:18:39;8.50;99.90
25346;DHT22;13300;51.032;3.710;2022-12-29T17:21:24;8.60;99.90
25346;DHT22;13300;51.032;3.710;2022-12-29T17:24:04;8.60;99.90
25346;DHT22;13300;51.032;3.710;2022-12-29T17:26:56;8.60;99.90
25346;DHT22;13300;51.032;3.710;2022-12-29T17:32:26;8.70;99.90
25346;DHT22;13300;51.032;3.710;2022-12-29T17:35:52;8.70;99.90
25346;DHT22;13300;51.032;3.710;2022-12-29T17:39:18;8.70;99.90
25346;DHT22;13300;51.032;3.710;2022-12-29T17:42:25;8.70;99.90
25346;DHT22;13300;51.032;3.710;2022-12-29T17:48:54;8.70;99.90
25346;DHT22;13300;51.032;3.710;2022-12-29T17:52:28;8.70;99.90
25346;DHT22;13300;51.032;3.710;2022-12-29T17:55:54;8.80;99.90
25346;DHT22;13300;51.032;3.710;2022-12-29T17:59:37;8.80;99.90
25346;DHT22;13300;51.032;3.710;2022-12-29T18:02:47;8.90;99.90
25346;DHT22;13300;51.032;3.710;2022-12-29T18:09:34;8.80;99.90
25346;DHT22;13300;51.032;3.710;2022-12-29T18:13:14;8.80;99.90
25346;DHT22;13300;51.032;3.710;2022-12-29T18:16:42;8.80;99.90
25346;DHT22;13300;51.032;3.710;2022-12-29T18:33:25;8.90;99.90
25346;DHT22;13300;51.032;3.710;2022-12-29T18:43:58;8.90;99.90
25346;DHT22;13300;51.032;3.710;2022-12-29T18:47:27;8.80;99.90
25346;DHT22;13300;51.032;3.710;2022-12-29T18:50:48;8.80;99.90
25346;DHT22;13300;51.032;3.710;2022-12-29T18:54:48;8.80;99.90
25346;DHT22;13300;51.032;3.710;2022-12-29T18:57:30;8.70;99.90
25346;DHT22;13300;51.032;3.710;2022-12-29T19:04:22;8.60;99.90
25346;DHT22;13300;51.032;3.710;2022-12-29T19:11:14;8.50;99.90
25346;DHT22;13300;51.032;3.710;2022-12-29T19:14:36;8.50;99.90
25346;DHT22;13300;51.032;3.710;2022-12-29T19:17:33;8.50;99.90
25346;DHT22;13300;51.032;3.710;2022-12-29T19:20:54;8.40;99.90
25346;DHT22;13300;51.032;3.710;2022-12-29T19:23:53;8.40;99.90
25346;DHT22;13300;51.032;3.710;2022-12-29T19:30:22;8.30;99.90
25346;DHT22;13300;51.032;3.710;2022-12-29T19:33:39;8.30;99.90
25346;DHT22;13300;51.032;3.710;2022-12-29T19:37:11;8.30;99.90
25346;DHT22;13300;51.032;3.710;2022-12-29T19:44:10;8.30;99.90
25346;DHT22;13300;51.032;3.710;2022-12-29T19:47:42;8.20;99.90
25346;DHT22;13300;51.032;3.710;2022-12-29T19:50:53;8.10;99.90
25346;DHT22;13300;51.032;3.710;2022-12-29T19:54:23;8.10;99.90
25346;DHT22;13300;51.032;3.710;2022-12-29T19:57:40;8.10;99.90
25346;DHT22;13300;51.032;3.710;2022-12-29T20:01:20;8.00;99.90
25346;DHT22;13300;51.032;3.710;2022-12-29T20:04:36;8.00;99.90
25346;DHT22;13300;51.032;3.710;2022-12-29T20:07:57;7.90;99.90
25346;DHT22;13300;51.032;3.710;2022-12-29T20:11:35;7.90;99.90
25346;DHT22;13300;51.032;3.710;2022-12-29T20:18:17;7.90;99.90
25346;DHT22;13300;51.032;3.710;2022-12-29T20:21:25;7.80;99.90
25346;DHT22;13300;51.032;3.710;2022-12-29T20:24:14;7.80;99.90
25346;DHT22;13300;51.032;3.710;2022-12-29T20:34:20;7.80;99.90
25346;DHT22;13300;51.032;3.710;2022-12-29T20:44:11;7.80;99.90
25346;DHT22;13300;51.032;3.710;2022-12-29T20:54:52;7.60;99.90
25346;DHT22;13300;51.032;3.710;2022-12-29T20:58:06;7.70;99.90
25346;DHT22;13300;51.032;3.710;2022-12-29T21:03:22;7.70;99.90
25346;DHT22;13300;51.032;3.710;2022-12-29T21:06:14;7.60;99.90
25346;DHT22;13300;51.032;3.710;2022-12-29T21:08:50;7.60;99.90
25346;DHT22;13300;51.032;3.710;2022-12-29T21:11:19;7.60;99.90
25346;DHT22;13300;51.032;3.710;2022-12-29T21:14:06;7.60;99.90
25346;DHT22;13300;51.032;3.710;2022-12-29T21:16:34;7.60;99.90
25346;DHT22;13300;51.032;3.710;2022-12-29T21:19:02;7.50;99.90
25346;DHT22;13300;51.032;3.710;2022-12-29T21:21:30;7.50;99.90
25346;DHT22;13300;51.032;3.710;2022-12-29T21:23:56;7.60;99.90
25346;DHT22;13300;51.032;3.710;2022-12-29T21:26:30;7.60;99.90
25346;DHT22;13300;51.032;3.710;2022-12-29T21:28:56;7.60;99.90
25346;DHT22;13300;51.032;3.710;2022-12-29T21:31:27;7.50;99.90
25346;DHT22;13300;51.032;3.710;2022-12-29T21:34:02;7.60;99.90
25346;DHT22;13300;51.032;3.710;2022-12-29T21:36:28;7.60;99.90
25346;DHT22;13300;51.032;3.710;2022-12-29T21:38:54;7.60;99.90
25346;DHT22;13300;51.032;3.710;2022-12-29T21:41:26;7.60;99.90
25346;DHT22;13300;51.032;3.710;2022-12-29T21:43:52;7.60;99.90
25346;DHT22;13300;51.032;3.710;2022-12-29T21:46:40;7.60;99.90
25346;DHT22;13300;51.032;3.710;2022-12-29T21:49:08;7.50;99.90
25346;DHT22;13300;51.032;3.710;2022-12-29T21:51:39;7.50;99.90
25346;DHT22;13300;51.032;3.710;2022-12-29T21:54:34;7.40;99.90
25346;DHT22;13300;51.032;3.710;2022-12-29T21:57:34;7.50;99.90
25346;DHT22;13300;51.032;3.710;2022-12-29T22:00:33;7.50;99.90
25346;DHT22;13300;51.032;3.710;2022-12-29T22:03:45;7.40;99.90
25346;DHT22;13300;51.032;3.710;2022-12-29T22:06:31;7.30;99.90
25346;DHT22;13300;51.032;3.710;2022-12-29T22:09:21;7.40;99.90
25346;DHT22;13300;51.032;3.710;2022-12-29T22:12:11;7.40;99.90
25346;DHT22;13300;51.032;3.710;2022-12-29T22:14:55;7.50;99.90
25346;DHT22;13300;51.032;3.710;2022-12-29T22:17:29;7.40;99.90
25346;DHT22;13300;51.032;3.710;2022-12-29T22:20:34;7.30;99.90
25346;DHT22;13300;51.032;3.710;2022-12-29T22:23:08;7.40;99.90
25346;DHT22;13300;51.032;3.710;2022-12-29T22:25:54;7.40;99.90
25346;DHT22;13300;51.032;3.710;2022-12-29T22:28:20;7.30;99.90
25346;DHT22;13300;51.032;3.710;2022-12-29T22:30:50;7.20;99.90
25346;DHT22;13300;51.032;3.710;2022-12-29T22:33:30;7.20;99.90
25346;DHT22;13300;51.032;3.710;2022-12-29T22:35:58;7.20;99.90
25346;DHT22;13300;51.032;3.710;2022-12-29T22:38:49;7.20;99.90
25346;DHT22;13300;51.032;3.710;2022-12-29T22:41:20;7.20;99.90
25346;DHT22;13300;51.032;3.710;2022-12-29T22:46:35;7.20;99.90
25346;DHT22;13300;51.032;3.710;2022-12-29T22:51:52;7.10;99.90
25346;DHT22;13300;51.032;3.710;2022-12-29T22:54:27;7.00;99.90
25346;DHT22;13300;51.032;3.710;2022-12-29T22:57:22;7.10;99.90
25346;DHT22;13300;51.032;3.710;2022-12-29T22:59:48;7.10;99.90
25346;DHT22;13300;51.032;3.710;2022-12-29T23:02:24;7.00;99.90
25346;DHT22;13300;51.032;3.710;2022-12-29T23:05:00;7.00;99.90
25346;DHT22;13300;51.032;3.710;2022-12-29T23:07:35;7.00;99.90
25346;DHT22;13300;51.032;3.710;2022-12-29T23:10:13;7.00;99.90
25346;DHT22;13300;51.032;3.710;2022-12-29T23:13:03;7.10;99.90
25346;DHT22;13300;51.032;3.710;2022-12-29T23:15:36;7.10;99.90
25346;DHT22;13300;51.032;3.710;2022-12-29T23:18:02;7.10;99.90
25346;DHT22;13300;51.032;3.710;2022-12-29T23:20:47;7.10;99.90
25346;DHT22;13300;51.032;3.710;2022-12-29T23:23:41;7.00;99.90
25346;DHT22;13300;51.032;3.710;2022-12-29T23:26:38;7.00;99.90
25346;DHT22;13300;51.032;3.710;2022-12-29T23:29:08;6.90;99.90
25346;DHT22;13300;51.032;3.710;2022-12-29T23:31:39;7.00;99.90
25346;DHT22;13300;51.032;3.710;2022-12-29T23:34:33;7.00;99.90
25346;DHT22;13300;51.032;3.710;2022-12-29T23:37:04;7.00;99.90
25346;DHT22;13300;51.032;3.710;2022-12-29T23:39:37;6.90;99.90
25346;DHT22;13300;51.032;3.710;2022-12-29T23:42:03;7.00;99.90
25346;DHT22;13300;51.032;3.710;2022-12-29T23:44:44;6.90;99.90
25346;DHT22;13300;51.032;3.710;2022-12-29T23:50:18;6.90;99.90
25346;DHT22;13300;51.032;3.710;2022-12-29T23:52:44;6.90;99.90
25346;DHT22;13300;51.032;3.710;2022-12-29T23:55:10;7.00;99.90
25346;DHT22;13300;51.032;3.710;2022-12-29T23:57:48;6.90;99.90
